Time,TemperatureF,DewpointF,PressureIn,WindDirection,WindDirectionDegrees,WindSpeedMPH,WindSpeedGustMPH,Humidity,HourlyPrecipIn,Conditions,Clouds,dailyrainin,SoftwareType,DateUTC
2013-07-21 16:24:00,86.9,59.7,30.15,SE,143,2.2,2.2,40,0.00,,---,0.71,VWS V14.01,2013-07-21 20:24:00,
2013-07-21 16:29:00,85.6,59.3,30.15,SE,125,0.0,0.0,41,0.00,,---,0.00,VWS V14.01,2013-07-21 20:29:00,
2013-07-21 16:34:00,84.7,58.5,30.12,WSW,251,2.7,3.1,41,0.00,,---,0.00,VWS V14.01,2013-07-21 20:34:00,
2013-07-21 16:39:00,83.7,58.2,30.12,SE,130,2.7,2.7,42,0.00,,---,0.00,VWS V14.01,2013-07-21 20:39:00,
2013-07-21 16:44:00,82.9,58.8,30.12,South,172,0.0,0.0,44,0.00,,---,0.00,VWS V14.01,2013-07-21 20:44:00,
2013-07-21 16:49:00,82.6,59.1,30.15,NNW,332,2.2,3.1,45,0.00,,---,0.00,VWS V14.01,2013-07-21 20:49:00,
2013-07-21 16:54:00,82.2,55.5,30.15,NW,317,3.6,5.4,40,0.00,,---,0.00,VWS V14.01,2013-07-21 20:54:00,
2013-07-21 16:59:00,80.4,52.5,30.15,NW,324,3.6,5.8,38,0.00,,---,0.00,VWS V14.01,2013-07-21 20:59:00,
2013-07-21 17:04:00,79.0,53.3,30.15,SSW,210,2.2,2.2,41,0.00,,---,0.00,VWS V14.01,2013-07-21 21:04:00,
2013-07-21 17:09:00,78.3,54.0,30.15,North,353,0.0,2.2,43,0.00,,---,0.00,VWS V14.01,2013-07-21 21:09:00,
2013-07-21 17:14:00,78.4,56.0,30.15,ENE,65,0.0,2.2,46,0.00,,---,0.00,VWS V14.01,2013-07-21 21:14:00,
2013-07-21 17:19:00,78.6,54.9,30.15,NE,46,2.2,3.1,44,0.00,,---,0.00,VWS V14.01,2013-07-21 21:19:00,
2013-07-21 17:24:00,78.1,53.8,30.15,NNE,33,0.0,0.0,43,0.00,,---,0.00,VWS V14.01,2013-07-21 21:24:00,
2013-07-21 17:29:00,77.5,53.9,30.15,NE,46,2.7,2.7,44,0.00,,---,0.00,VWS V14.01,2013-07-21 21:29:00,
2013-07-21 17:34:00,77.0,53.4,30.15,NNW,332,0.0,0.0,44,0.00,,---,0.00,VWS V14.01,2013-07-21 21:34:00,
2013-07-21 17:39:00,76.8,53.9,30.15,NNW,339,0.0,0.0,45,0.00,,---,0.00,VWS V14.01,2013-07-21 21:39:00,
2013-07-21 17:44:00,76.6,54.3,30.15,NNW,333,0.0,0.0,46,0.00,,---,0.00,VWS V14.01,2013-07-21 21:44:00,
2013-07-21 17:49:00,76.6,54.3,30.15,WNW,297,0.0,0.0,46,0.00,,---,0.00,VWS V14.01,2013-07-21 21:49:00,
2013-07-21 17:54:00,76.5,54.8,30.15,NE,55,0.0,0.0,47,0.00,,---,0.00,VWS V14.01,2013-07-21 21:54:00,
2013-07-21 17:59:00,76.3,54.0,30.15,NE,43,4.9,4.9,46,0.04,,---,0.04,VWS V14.01,2013-07-21 21:59:00,
2013-07-21 18:04:00,75.7,53.5,30.15,ESE,102,0.0,0.0,46,0.08,,---,0.08,VWS V14.01,2013-07-21 22:04:00,
2013-07-21 18:09:00,75.4,53.8,30.15,NNE,31,0.0,0.0,47,0.08,,---,0.08,VWS V14.01,2013-07-21 22:09:00,
2013-07-21 18:14:00,75.0,54.0,30.15,NE,52,0.0,0.0,48,0.08,,---,0.08,VWS V14.01,2013-07-21 22:14:00,
2013-07-21 18:19:00,75.0,54.6,30.15,NE,52,0.0,0.0,49,0.08,,---,0.08,VWS V14.01,2013-07-21 22:19:00,
2013-07-21 18:24:00,75.0,55.1,30.15,NE,52,0.0,0.0,50,0.12,,---,0.12,VWS V14.01,2013-07-21 22:24:00,
2013-07-21 18:29:00,75.0,55.7,30.15,NW,309,0.0,0.0,51,0.12,,---,0.12,VWS V14.01,2013-07-21 22:29:00,
2013-07-21 18:34:00,75.0,56.2,30.15,WSW,241,0.0,0.0,52,0.12,,---,0.12,VWS V14.01,2013-07-21 22:34:00,
2013-07-21 18:39:00,75.0,56.8,30.15,WSW,257,0.0,0.0,53,0.12,,---,0.12,VWS V14.01,2013-07-21 22:39:00,
2013-07-21 18:44:00,75.0,57.3,30.15,NW,321,0.0,0.0,54,0.12,,---,0.12,VWS V14.01,2013-07-21 22:44:00,
2013-07-21 18:49:00,75.0,57.8,30.15,NW,321,0.0,0.0,55,0.12,,---,0.12,VWS V14.01,2013-07-21 22:49:00,
2013-07-21 18:54:00,75.0,58.8,30.15,NW,321,0.0,0.0,57,0.12,,---,0.12,VWS V14.01,2013-07-21 22:54:00,
2013-07-21 18:59:00,75.2,58.9,30.15,NW,321,0.0,0.0,57,0.12,,---,0.12,VWS V14.01,2013-07-21 22:59:00,
2013-07-21 19:04:00,75.4,60.1,30.15,SW,229,0.0,0.0,59,0.04,,---,0.12,VWS V14.01,2013-07-21 23:04:00,
2013-07-21 19:09:00,75.4,60.1,30.15,South,189,0.0,0.0,59,0.04,,---,0.12,VWS V14.01,2013-07-21 23:09:00,
2013-07-21 19:14:00,75.6,61.6,30.15,SSE,150,0.0,0.0,62,0.04,,---,0.12,VWS V14.01,2013-07-21 23:14:00,
2013-07-21 19:19:00,75.9,62.4,30.15,South,184,0.0,0.0,63,0.04,,---,0.12,VWS V14.01,2013-07-21 23:19:00,
2013-07-21 19:24:00,75.9,62.4,30.15,SW,230,0.0,0.0,63,0.00,,---,0.12,VWS V14.01,2013-07-21 23:24:00,
2013-07-21 19:29:00,75.9,62.4,30.18,SW,221,0.0,0.0,63,0.00,,---,0.12,VWS V14.01,2013-07-21 23:29:00,
2013-07-21 19:34:00,75.9,62.4,30.18,SW,221,0.0,0.0,63,0.00,,---,0.12,VWS V14.01,2013-07-21 23:34:00,
2013-07-21 19:39:00,76.1,63.0,30.18,SW,221,0.0,0.0,64,0.00,,---,0.12,VWS V14.01,2013-07-21 23:39:00,
2013-07-21 19:44:00,76.1,63.0,30.18,SSW,211,0.0,0.0,64,0.00,,---,0.12,VWS V14.01,2013-07-21 23:44:00,
2013-07-21 19:49:00,76.1,63.5,30.18,NNE,30,0.0,0.0,65,0.00,,---,0.12,VWS V14.01,2013-07-21 23:49:00,
2013-07-21 19:54:00,76.3,64.1,30.18,South,174,0.0,0.0,66,0.04,,---,0.16,VWS V14.01,2013-07-21 23:54:00,
2013-07-21 19:59:00,76.3,64.1,30.18,SW,218,0.0,0.0,66,0.04,,---,0.16,VWS V14.01,2013-07-21 23:59:00,
2013-07-21 20:04:00,76.3,64.5,30.18,NE,44,0.0,0.0,67,0.04,,---,0.16,VWS V14.01,2013-07-22 00:04:00,
2013-07-21 20:09:00,76.3,64.1,30.18,SE,133,0.0,0.0,66,0.04,,---,0.16,VWS V14.01,2013-07-22 00:09:00,
2013-07-21 20:14:00,76.3,63.7,30.18,SSE,165,0.0,0.0,65,0.04,,---,0.16,VWS V14.01,2013-07-22 00:14:00,
2013-07-21 20:19:00,75.9,62.9,30.18,SSW,200,0.0,0.0,64,0.04,,---,0.16,VWS V14.01,2013-07-22 00:19:00,
2013-07-21 20:24:00,75.9,62.9,30.18,South,170,0.0,0.0,64,0.04,,---,0.16,VWS V14.01,2013-07-22 00:24:00,
2013-07-21 20:29:00,75.7,62.7,30.18,SSE,162,0.0,0.0,64,0.04,,---,0.16,VWS V14.01,2013-07-22 00:29:00,
2013-07-21 20:34:00,75.7,62.7,30.18,SSE,162,0.0,0.0,64,0.04,,---,0.16,VWS V14.01,2013-07-22 00:34:00,
2013-07-21 20:39:00,75.7,62.7,30.18,SSW,207,0.0,0.0,64,0.04,,---,0.16,VWS V14.01,2013-07-22 00:39:00,
2013-07-21 20:44:00,75.7,62.7,30.18,SSW,207,0.0,0.0,64,0.04,,---,0.16,VWS V14.01,2013-07-22 00:44:00,